Terminal Aerodrome Forecast
Issued by NWS

Home | Current Version | Previous Version | Text Only | Print | Product List | Glossary Off
Versions: 1 2 3 4 5 6 7 8 9 10 11 12 13 14 15 16 17 18

301
FTUS43 KABR 211727
TAFMBG
TAF
KMBG 211727Z 2118/2218 30010KT P6SM SCT200
     FM220000 32013KT P6SM BKN120
     FM220200 32005KT P6SM BKN110
     FM221400 33010KT P6SM VCSH BKN050
     FM221700 35015G23KT P6SM BKN060=

USA.gov is the U.S. government's official web portal to all federal, state and local government web resources and services.